createdAt,value
2018-08-16T00:01:17.520Z,22.10
2018-08-16T00:03:45.229Z,22.10
2018-08-16T00:06:12.956Z,22.10
2018-08-16T00:08:41.189Z,22.00
2018-08-16T00:11:08.821Z,22.00
2018-08-16T00:13:36.491Z,21.90
2018-08-16T00:16:04.557Z,21.90
2018-08-16T00:18:32.205Z,21.80
2018-08-16T00:20:59.851Z,21.80
2018-08-16T00:23:27.466Z,21.80
2018-08-16T00:25:55.724Z,21.70
2018-08-16T00:28:23.332Z,21.70
2018-08-16T00:30:51.609Z,21.70
2018-08-16T00:33:19.247Z,21.60
2018-08-16T00:35:46.866Z,21.60
2018-08-16T00:38:14.754Z,21.50
2018-08-16T00:40:42.438Z,21.50
2018-08-16T00:43:10.084Z,21.40
2018-08-16T00:45:37.885Z,21.40
2018-08-16T00:48:05.622Z,21.40
2018-08-16T00:50:34.009Z,21.30
2018-08-16T00:53:02.031Z,21.30
2018-08-16T00:55:29.633Z,21.20
2018-08-16T00:57:57.244Z,21.20
2018-08-16T01:00:25.067Z,21.10
2018-08-16T01:02:52.645Z,21.10
2018-08-16T01:05:20.561Z,21.10
2018-08-16T01:07:48.414Z,21.00
2018-08-16T01:10:16.233Z,21.00
2018-08-16T01:12:44.272Z,21.00
2018-08-16T01:15:15.108Z,20.90
2018-08-16T01:17:42.748Z,20.90
2018-08-16T01:20:10.425Z,20.90
2018-08-16T01:22:38.696Z,20.80
2018-08-16T01:25:08.403Z,20.80
2018-08-16T01:27:36.376Z,20.80
2018-08-16T01:30:05.753Z,20.70
2018-08-16T01:32:33.328Z,20.70
2018-08-16T01:35:00.949Z,20.70
2018-08-16T01:37:28.669Z,20.70
2018-08-16T01:39:56.349Z,20.60
2018-08-16T01:42:23.955Z,20.60
2018-08-16T01:44:51.723Z,20.50
2018-08-16T01:47:19.621Z,20.50
2018-08-16T01:49:47.213Z,20.50
2018-08-16T01:52:15.158Z,20.50
2018-08-16T01:54:42.885Z,20.40
2018-08-16T01:57:10.473Z,20.40
2018-08-16T01:59:38.064Z,20.40
2018-08-16T02:02:05.904Z,20.40
2018-08-16T02:04:33.535Z,20.40
2018-08-16T02:07:01.713Z,20.40
2018-08-16T02:09:29.512Z,20.40
2018-08-16T02:11:57.114Z,20.40
2018-08-16T02:14:24.761Z,20.40
2018-08-16T02:16:52.617Z,20.40
2018-08-16T02:19:20.180Z,20.40
2018-08-16T02:21:47.820Z,20.30
2018-08-16T02:24:15.376Z,20.30
2018-08-16T02:26:43.792Z,20.30
2018-08-16T02:29:11.316Z,20.30
2018-08-16T02:31:38.921Z,20.20
2018-08-16T02:34:06.554Z,20.20
2018-08-16T02:36:34.289Z,20.20
2018-08-16T02:39:02.080Z,20.10
2018-08-16T02:41:29.810Z,20.10
2018-08-16T02:43:57.417Z,20.10
2018-08-16T02:46:25.000Z,20.10
2018-08-16T02:48:52.885Z,20.00
2018-08-16T02:51:20.474Z,20.00
2018-08-16T02:53:48.605Z,20.00
2018-08-16T02:56:16.484Z,20.00
2018-08-16T02:58:44.069Z,20.00
2018-08-16T03:01:11.677Z,20.00
2018-08-16T03:03:39.775Z,20.00
2018-08-16T03:06:07.473Z,20.00
2018-08-16T03:08:35.078Z,20.00
2018-08-16T03:11:02.890Z,19.90
2018-08-16T03:13:30.565Z,20.00
2018-08-16T03:15:58.240Z,19.90
2018-08-16T03:18:25.908Z,20.00
2018-08-16T03:20:53.546Z,19.90
2018-08-16T03:23:21.124Z,19.90
2018-08-16T03:25:49.145Z,20.00
2018-08-16T03:28:17.448Z,19.90
2018-08-16T03:30:45.091Z,20.00
2018-08-16T03:33:12.952Z,20.00
2018-08-16T03:35:40.801Z,19.90
2018-08-16T03:38:08.474Z,19.90
2018-08-16T03:40:36.278Z,19.90
2018-08-16T03:43:04.005Z,19.90
2018-08-16T03:45:31.610Z,19.90
2018-08-16T03:47:59.543Z,19.90
2018-08-16T03:50:27.062Z,19.90
2018-08-16T03:52:54.639Z,19.90
2018-08-16T03:55:23.069Z,19.90
2018-08-16T03:57:50.693Z,19.90
2018-08-16T04:00:18.348Z,19.90
2018-08-16T04:02:46.072Z,19.90
2018-08-16T04:05:13.832Z,19.90
2018-08-16T04:07:41.473Z,19.90
2018-08-16T04:10:09.160Z,19.90
2018-08-16T04:12:36.934Z,19.90
2018-08-16T04:15:04.604Z,19.90
2018-08-16T04:17:36.980Z,20.00
2018-08-16T04:20:05.902Z,20.00
2018-08-16T04:22:34.259Z,20.00
2018-08-16T04:25:02.064Z,20.00
2018-08-16T04:27:31.232Z,20.00
2018-08-16T04:29:58.932Z,20.00
2018-08-16T04:32:27.308Z,20.00
2018-08-16T04:34:54.848Z,20.10
2018-08-16T04:37:22.487Z,20.10
2018-08-16T04:39:50.165Z,20.10
2018-08-16T04:42:17.841Z,20.10
2018-08-16T04:44:45.492Z,20.10
2018-08-16T04:47:13.161Z,20.10
2018-08-16T04:49:40.820Z,20.10
2018-08-16T04:52:08.626Z,20.10
2018-08-16T04:54:36.456Z,20.10
2018-08-16T04:57:04.675Z,20.10
2018-08-16T04:59:32.581Z,20.10
2018-08-16T05:01:59.856Z,20.10
2018-08-16T05:04:27.488Z,20.20
2018-08-16T05:06:55.141Z,20.20
2018-08-16T05:09:22.806Z,20.20
2018-08-16T05:11:50.677Z,20.30
2018-08-16T05:14:18.295Z,20.30
2018-08-16T05:16:46.192Z,20.30
2018-08-16T05:19:14.032Z,20.40
2018-08-16T05:21:41.629Z,20.50
2018-08-16T05:24:09.192Z,20.50
2018-08-16T05:26:37.094Z,20.60
2018-08-16T05:29:04.758Z,20.70
2018-08-16T05:34:00.197Z,20.90
2018-08-16T05:36:27.803Z,21.00
2018-08-16T05:38:55.773Z,21.20
2018-08-16T05:41:23.443Z,21.30
2018-08-16T05:43:51.073Z,21.50
2018-08-16T05:46:18.976Z,21.60
2018-08-16T05:48:47.240Z,21.90
2018-08-16T05:51:14.857Z,22.10
2018-08-16T05:53:42.415Z,22.30
2018-08-16T05:56:10.613Z,22.50
2018-08-16T05:58:38.183Z,22.80
2018-08-16T06:01:05.884Z,23.00
2018-08-16T06:03:33.684Z,23.20
2018-08-16T06:06:01.268Z,23.50
2018-08-16T06:08:28.856Z,23.70
2018-08-16T06:10:56.501Z,24.00
2018-08-16T06:13:24.093Z,24.20
2018-08-16T06:15:51.672Z,24.40
2018-08-16T06:18:19.898Z,24.70
2018-08-16T06:20:47.527Z,25.00
2018-08-16T06:23:15.106Z,25.30
2018-08-16T06:25:43.089Z,25.60
2018-08-16T06:28:10.864Z,26.00
2018-08-16T06:30:38.414Z,26.30
2018-08-16T06:33:06.204Z,26.70
2018-08-16T06:35:33.787Z,27.10
2018-08-16T06:38:01.349Z,27.40
2018-08-16T06:40:29.892Z,27.80
2018-08-16T06:42:57.520Z,28.10
2018-08-16T06:45:25.121Z,28.50
2018-08-16T06:47:52.780Z,28.80
2018-08-16T06:50:20.607Z,29.00
2018-08-16T06:52:48.373Z,29.30
2018-08-16T06:55:17.033Z,29.50
2018-08-16T06:57:45.297Z,29.60
2018-08-16T07:00:13.678Z,29.80
2018-08-16T07:02:41.388Z,30.00
2018-08-16T07:05:09.037Z,30.10
2018-08-16T07:07:37.511Z,30.40
2018-08-16T07:10:07.830Z,30.50
2018-08-16T07:12:35.593Z,30.70
2018-08-16T07:15:05.477Z,30.80
2018-08-16T07:17:33.056Z,31.10
2018-08-16T07:20:00.764Z,31.30
2018-08-16T07:22:28.425Z,31.50
2018-08-16T07:24:56.052Z,31.70
2018-08-16T07:27:24.092Z,31.90
2018-08-16T07:29:51.777Z,32.10
2018-08-16T07:32:19.349Z,32.40
2018-08-16T07:34:46.980Z,32.60
2018-08-16T07:37:14.541Z,33.00
2018-08-16T07:39:42.136Z,33.30
2018-08-16T07:42:09.999Z,33.60
2018-08-16T07:44:37.641Z,33.90
2018-08-16T07:47:05.558Z,34.20
2018-08-16T07:49:33.544Z,34.40
2018-08-16T07:52:01.144Z,34.60
2018-08-16T07:54:28.772Z,34.90
2018-08-16T07:56:56.492Z,35.10
2018-08-16T07:59:24.068Z,35.30
2018-08-16T08:01:51.820Z,35.50
2018-08-16T08:04:19.467Z,35.80
2018-08-16T08:06:47.345Z,36.10
2018-08-16T08:09:14.919Z,36.30
2018-08-16T08:11:42.924Z,36.60
2018-08-16T08:14:10.533Z,36.80
2018-08-16T08:16:38.408Z,37.10
2018-08-16T08:19:05.961Z,37.30
2018-08-16T08:21:33.540Z,37.50
2018-08-16T08:24:01.459Z,37.70
2018-08-16T08:26:29.065Z,37.90
2018-08-16T08:28:56.677Z,38.10
2018-08-16T08:31:24.505Z,38.30
2018-08-16T08:33:52.197Z,38.40
2018-08-16T08:36:37.685Z,38.50
2018-08-16T08:39:06.921Z,38.60
2018-08-16T08:41:34.543Z,38.80
2018-08-16T08:44:18.490Z,39.00
2018-08-16T08:46:47.432Z,39.10
2018-08-16T08:49:15.124Z,39.20
2018-08-16T08:51:43.439Z,39.40
2018-08-16T08:54:38.361Z,39.50
2018-08-16T08:57:18.099Z,39.50
2018-08-16T08:59:45.685Z,39.70
2018-08-16T09:02:13.577Z,39.80
2018-08-16T09:04:41.767Z,39.90
2018-08-16T09:07:11.392Z,40.00
2018-08-16T09:10:55.998Z,40.10
2018-08-16T09:13:41.353Z,40.10
2018-08-16T09:16:13.153Z,40.40
2018-08-16T09:18:40.792Z,40.50
2018-08-16T09:21:09.141Z,40.80
2018-08-16T09:23:37.033Z,40.90
2018-08-16T09:26:35.600Z,41.10
2018-08-16T09:30:38.370Z,41.40
2018-08-16T09:33:23.508Z,41.60
2018-08-16T09:35:51.114Z,41.70
2018-08-16T09:38:18.732Z,41.70
2018-08-16T09:40:46.277Z,41.70
2018-08-16T09:43:14.089Z,41.70
2018-08-16T09:47:01.886Z,41.70
2018-08-16T09:49:31.312Z,41.70
2018-08-16T09:51:59.121Z,41.50
2018-08-16T09:54:26.693Z,41.40
2018-08-16T09:56:55.539Z,41.40
2018-08-16T09:59:23.692Z,41.40
2018-08-16T10:01:51.301Z,41.40
2018-08-16T10:04:18.960Z,41.40
2018-08-16T10:06:46.984Z,41.40
2018-08-16T10:09:20.381Z,41.40
2018-08-16T10:11:48.397Z,41.50
2018-08-16T10:14:16.377Z,41.60
2018-08-16T10:16:44.006Z,41.60
2018-08-16T10:19:11.922Z,41.50
2018-08-16T10:21:39.489Z,41.50
2018-08-16T10:24:07.236Z,41.40
2018-08-16T10:26:35.164Z,41.30
2018-08-16T10:29:02.841Z,41.20
2018-08-16T10:31:30.384Z,41.20
2018-08-16T10:33:58.228Z,41.10
2018-08-16T10:36:26.141Z,41.10
2018-08-16T10:38:53.740Z,41.00
2018-08-16T10:41:21.468Z,41.00
2018-08-16T10:43:49.137Z,41.00
2018-08-16T10:46:16.744Z,40.90
2018-08-16T10:48:44.340Z,41.00
2018-08-16T10:51:12.297Z,41.00
2018-08-16T10:53:39.953Z,40.90
2018-08-16T10:56:08.154Z,40.90
2018-08-16T10:58:36.035Z,40.90
2018-08-16T11:01:04.473Z,40.80
2018-08-16T11:03:32.051Z,40.80
2018-08-16T11:05:59.829Z,40.80
2018-08-16T11:08:27.459Z,40.80
2018-08-16T11:10:55.026Z,40.80
2018-08-16T11:13:22.941Z,40.80
2018-08-16T11:15:50.545Z,40.80
2018-08-16T11:18:18.125Z,40.90
2018-08-16T11:20:45.844Z,40.90
2018-08-16T11:23:13.472Z,40.90
2018-08-16T11:25:41.066Z,40.90
2018-08-16T11:28:08.947Z,40.90
2018-08-16T11:30:36.868Z,40.90
2018-08-16T11:33:04.513Z,40.80
2018-08-16T11:35:32.354Z,40.80
2018-08-16T11:38:00.067Z,40.80
2018-08-16T11:40:28.157Z,40.90
2018-08-16T11:42:55.744Z,40.90
2018-08-16T11:45:23.322Z,40.90
2018-08-16T11:47:51.169Z,41.00
2018-08-16T11:50:18.766Z,41.00
2018-08-16T11:52:46.469Z,41.10
2018-08-16T11:55:14.477Z,41.20
2018-08-16T11:57:42.133Z,41.20
2018-08-16T12:00:10.061Z,41.20
2018-08-16T12:02:37.888Z,41.20
2018-08-16T12:05:05.525Z,41.10
2018-08-16T12:07:33.256Z,41.00
2018-08-16T12:10:01.129Z,40.90
2018-08-16T12:12:28.717Z,40.90
2018-08-16T12:14:56.308Z,40.90
2018-08-16T12:17:24.059Z,40.90
2018-08-16T12:19:51.845Z,40.90
2018-08-16T12:22:19.418Z,40.80
2018-08-16T12:24:47.310Z,40.80
2018-08-16T12:27:15.932Z,40.60
2018-08-16T12:29:43.506Z,40.50
2018-08-16T12:32:11.288Z,40.30
2018-08-16T12:34:38.822Z,40.10
2018-08-16T12:37:06.485Z,39.90
2018-08-16T12:39:34.281Z,39.70
2018-08-16T12:42:01.957Z,39.50
2018-08-16T12:44:29.801Z,39.40
2018-08-16T12:46:57.402Z,39.30
2018-08-16T12:49:25.244Z,39.10
2018-08-16T12:51:52.968Z,39.00
2018-08-16T12:54:20.553Z,39.00
2018-08-16T12:56:48.111Z,38.90
2018-08-16T12:59:15.936Z,38.80
2018-08-16T13:01:43.548Z,38.80
2018-08-16T13:04:11.603Z,38.80
2018-08-16T13:06:39.345Z,38.70
2018-08-16T13:09:08.403Z,38.60
2018-08-16T13:11:36.237Z,38.60
2018-08-16T13:14:04.260Z,38.50
2018-08-16T13:16:31.830Z,38.50
2018-08-16T13:18:59.705Z,38.40
2018-08-16T13:21:27.279Z,38.30
2018-08-16T13:23:54.902Z,38.10
2018-08-16T13:26:22.554Z,38.00
2018-08-16T13:28:50.153Z,37.90
2018-08-16T13:31:18.023Z,37.70
2018-08-16T13:33:45.511Z,37.50
2018-08-16T13:36:13.091Z,37.40
2018-08-16T13:38:40.937Z,37.30
2018-08-16T13:41:08.532Z,37.20
2018-08-16T13:43:36.089Z,37.10
2018-08-16T13:46:04.085Z,37.00
2018-08-16T13:48:31.805Z,37.00
2018-08-16T13:50:59.236Z,36.80
2018-08-16T13:53:27.058Z,36.70
2018-08-16T13:55:54.673Z,36.70
2018-08-16T13:58:22.234Z,36.70
2018-08-16T14:00:50.012Z,36.60
2018-08-16T14:03:17.756Z,36.60
2018-08-16T14:05:46.388Z,36.50
2018-08-16T14:08:13.949Z,36.50
2018-08-16T14:10:41.474Z,36.40
2018-08-16T14:13:09.420Z,36.30
2018-08-16T14:15:36.988Z,36.30
2018-08-16T14:18:04.948Z,36.20
2018-08-16T14:20:32.473Z,36.10
2018-08-16T14:23:00.022Z,36.00
2018-08-16T14:25:28.460Z,35.80
2018-08-16T14:27:56.160Z,35.70
2018-08-16T14:30:23.704Z,35.60
2018-08-16T14:32:51.273Z,35.50
2018-08-16T14:35:18.808Z,35.30
2018-08-16T14:37:46.504Z,35.20
2018-08-16T14:40:14.967Z,35.20
2018-08-16T14:42:42.549Z,35.10
2018-08-16T14:45:10.134Z,35.10
2018-08-16T14:47:37.883Z,35.00
2018-08-16T14:50:06.213Z,34.90
2018-08-16T14:52:34.506Z,34.90
2018-08-16T14:55:02.178Z,34.80
2018-08-16T14:57:29.737Z,34.80
2018-08-16T14:59:57.448Z,34.80
2018-08-16T15:02:24.977Z,34.70
2018-08-16T15:04:53.681Z,34.70
2018-08-16T15:07:21.414Z,34.70
2018-08-16T15:09:48.964Z,34.60
2018-08-16T15:12:16.905Z,34.60
2018-08-16T15:14:44.476Z,34.60
2018-08-16T15:17:12.056Z,34.50
2018-08-16T15:19:39.796Z,34.50
2018-08-16T15:22:07.429Z,34.40
2018-08-16T15:24:42.103Z,34.40
2018-08-16T15:27:09.701Z,34.40
2018-08-16T15:29:37.283Z,34.30
2018-08-16T15:32:05.077Z,34.20
2018-08-16T15:34:32.757Z,34.20
2018-08-16T15:37:00.344Z,34.10
2018-08-16T15:39:27.886Z,34.00
2018-08-16T15:41:55.765Z,33.90
2018-08-16T15:44:24.384Z,33.90
2018-08-16T15:46:52.068Z,33.80
2018-08-16T15:49:19.800Z,33.80
2018-08-16T15:51:47.477Z,33.80
2018-08-16T15:54:15.252Z,33.70
2018-08-16T15:56:43.858Z,33.70
2018-08-16T15:59:11.587Z,33.70
2018-08-16T16:01:39.127Z,33.60
2018-08-16T16:04:06.929Z,33.60
2018-08-16T16:06:34.512Z,33.60
2018-08-16T16:09:03.443Z,33.60
2018-08-16T16:11:31.168Z,33.60
2018-08-16T16:13:58.777Z,33.60
2018-08-16T16:16:26.368Z,33.60
2018-08-16T16:18:54.342Z,33.50
2018-08-16T16:21:21.949Z,33.50
2018-08-16T16:23:49.724Z,33.50
2018-08-16T16:26:17.300Z,33.40
2018-08-16T16:28:44.874Z,33.40
2018-08-16T16:31:12.701Z,33.40
2018-08-16T16:33:40.234Z,33.40
2018-08-16T16:36:15.004Z,33.30
2018-08-16T16:38:42.580Z,33.30
2018-08-16T16:41:10.129Z,33.20
2018-08-16T16:43:38.321Z,33.20
2018-08-16T16:46:06.065Z,33.30
2018-08-16T16:48:33.733Z,33.20
2018-08-16T16:51:01.605Z,33.20
2018-08-16T16:53:29.170Z,33.10
2018-08-16T16:55:56.789Z,33.20
2018-08-16T16:58:24.926Z,33.10
2018-08-16T17:00:53.449Z,33.00
2018-08-16T17:03:21.168Z,33.00
2018-08-16T17:05:48.833Z,33.00
2018-08-16T17:08:27.530Z,33.00
2018-08-16T17:11:08.404Z,33.00
2018-08-16T17:13:36.145Z,32.80
2018-08-16T17:16:42.085Z,32.80
2018-08-16T17:19:33.057Z,32.80
2018-08-16T17:22:07.801Z,32.80
2018-08-16T17:24:35.516Z,32.70
2018-08-16T17:27:03.104Z,32.70
2018-08-16T17:29:30.970Z,32.60
2018-08-16T17:31:58.622Z,32.60
2018-08-16T17:34:26.232Z,32.60
2018-08-16T17:36:54.439Z,32.60
2018-08-16T17:39:21.951Z,32.50
2018-08-16T17:41:49.565Z,32.50
2018-08-16T17:44:17.432Z,32.40
2018-08-16T17:46:45.204Z,32.40
2018-08-16T17:49:12.789Z,32.30
2018-08-16T17:51:40.700Z,32.30
2018-08-16T17:54:08.300Z,32.20
2018-08-16T17:56:35.829Z,32.20
2018-08-16T17:59:04.005Z,32.20
2018-08-16T18:01:31.600Z,32.00
2018-08-16T18:03:59.141Z,32.00
2018-08-16T18:06:26.904Z,32.00
2018-08-16T18:08:54.421Z,31.90
2018-08-16T18:11:21.953Z,31.80
2018-08-16T18:13:49.788Z,31.80
2018-08-16T18:16:17.349Z,31.70
2018-08-16T18:18:44.921Z,31.70
2018-08-16T18:21:13.641Z,31.60
2018-08-16T18:23:41.184Z,31.60
2018-08-16T18:26:08.744Z,31.50
2018-08-16T18:28:37.250Z,31.50
2018-08-16T18:31:05.316Z,31.50
2018-08-16T18:33:32.852Z,31.40
2018-08-16T18:36:00.452Z,31.30
2018-08-16T18:38:28.341Z,31.20
2018-08-16T18:40:55.878Z,31.20
2018-08-16T18:43:23.484Z,31.10
2018-08-16T18:45:51.312Z,31.00
2018-08-16T18:48:18.873Z,31.00
2018-08-16T18:50:46.501Z,30.90
2018-08-16T18:53:15.664Z,30.90
2018-08-16T18:55:43.564Z,30.80
2018-08-16T18:58:11.116Z,30.70
2018-08-16T19:00:39.012Z,30.70
2018-08-16T19:03:06.949Z,30.60
2018-08-16T19:05:34.784Z,30.50
2018-08-16T19:08:02.244Z,30.50
2018-08-16T19:10:30.149Z,30.40
2018-08-16T19:12:58.561Z,30.30
2018-08-16T19:15:26.762Z,30.30
2018-08-16T19:17:54.338Z,30.20
2018-08-16T19:20:21.975Z,30.10
2018-08-16T19:22:49.553Z,30.00
2018-08-16T19:25:55.627Z,30.00
2018-08-16T19:28:28.731Z,30.00
2018-08-16T19:30:56.891Z,29.90
2018-08-16T19:33:24.432Z,29.80
2018-08-16T19:36:30.426Z,29.80
2018-08-16T19:39:16.233Z,29.70
2018-08-16T19:41:44.098Z,29.60
2018-08-16T19:44:11.609Z,29.50
2018-08-16T19:46:39.183Z,29.40
2018-08-16T19:49:06.892Z,29.40
2018-08-16T19:51:34.437Z,29.30
2018-08-16T19:54:01.981Z,29.30
2018-08-16T19:56:29.876Z,29.20
2018-08-16T19:58:57.508Z,29.20
2018-08-16T20:01:25.963Z,29.20
2018-08-16T20:03:53.733Z,29.10
2018-08-16T20:06:21.312Z,29.10
2018-08-16T20:08:48.940Z,29.00
2018-08-16T20:11:17.225Z,29.00
2018-08-16T20:13:44.794Z,28.90
2018-08-16T20:16:12.384Z,28.80
2018-08-16T20:18:40.156Z,28.80
2018-08-16T20:21:07.744Z,28.80
2018-08-16T20:23:35.288Z,28.70
2018-08-16T20:26:03.204Z,28.60
2018-08-16T20:28:30.797Z,28.60
2018-08-16T20:30:58.389Z,28.50
2018-08-16T20:33:26.289Z,28.50
2018-08-16T20:35:54.181Z,28.40
2018-08-16T20:38:22.074Z,28.30
2018-08-16T20:40:50.313Z,28.30
2018-08-16T20:43:18.225Z,28.20
2018-08-16T20:45:46.092Z,28.10
2018-08-16T20:48:13.656Z,28.10
2018-08-16T20:50:41.257Z,28.00
2018-08-16T20:53:09.070Z,28.00
2018-08-16T20:55:36.626Z,27.90
2018-08-16T20:58:22.420Z,27.90
2018-08-16T21:00:50.046Z,27.80
2018-08-16T21:03:17.696Z,27.80
2018-08-16T21:05:45.594Z,27.70
2018-08-16T21:08:13.154Z,27.60
2018-08-16T21:10:40.692Z,27.60
2018-08-16T21:13:08.649Z,27.50
2018-08-16T21:15:36.237Z,27.50
2018-08-16T21:18:03.805Z,27.40
2018-08-16T21:20:32.045Z,27.30
2018-08-16T21:22:59.605Z,27.30
2018-08-16T21:25:27.145Z,27.30
2018-08-16T21:27:54.830Z,27.20
2018-08-16T21:30:22.346Z,27.10
2018-08-16T21:32:49.901Z,27.10
2018-08-16T21:35:17.676Z,27.00
2018-08-16T21:37:45.250Z,26.90
2018-08-16T21:40:12.752Z,26.90
2018-08-16T21:42:40.521Z,26.80
2018-08-16T21:45:08.116Z,26.80
2018-08-16T21:47:36.273Z,26.70
2018-08-16T21:50:05.885Z,26.70
2018-08-16T21:52:34.021Z,26.60
2018-08-16T21:55:01.579Z,26.60
2018-08-16T21:57:29.417Z,26.50
2018-08-16T21:59:56.927Z,26.50
2018-08-16T22:02:24.509Z,26.40
2018-08-16T22:04:52.237Z,26.40
2018-08-16T22:08:08.559Z,26.30
2018-08-16T22:10:36.521Z,26.30
2018-08-16T22:13:04.505Z,26.20
2018-08-16T22:15:32.047Z,26.20
2018-08-16T22:18:00.220Z,26.10
2018-08-16T22:20:27.781Z,26.10
2018-08-16T22:22:55.303Z,26.00
2018-08-16T22:25:23.173Z,26.00
2018-08-16T22:27:50.741Z,26.00
2018-08-16T22:30:18.324Z,25.90
2018-08-16T22:32:46.995Z,25.90
2018-08-16T22:35:15.372Z,25.80
2018-08-16T22:37:42.914Z,25.80
2018-08-16T22:40:10.580Z,25.70
2018-08-16T22:42:38.590Z,25.70
2018-08-16T22:45:06.249Z,25.60
2018-08-16T22:47:33.815Z,25.50
2018-08-16T22:50:01.913Z,25.50
2018-08-16T22:52:29.548Z,25.50
2018-08-16T22:54:57.492Z,25.40
2018-08-16T22:57:25.664Z,25.30
2018-08-16T22:59:53.254Z,25.30
2018-08-16T23:02:20.837Z,25.20
2018-08-16T23:04:48.746Z,25.20
2018-08-16T23:07:16.344Z,25.10
2018-08-16T23:09:43.967Z,25.10
2018-08-16T23:12:12.698Z,25.00
2018-08-16T23:14:40.271Z,25.00
2018-08-16T23:17:07.872Z,24.90
2018-08-16T23:19:35.748Z,24.90
2018-08-16T23:22:03.398Z,24.90
2018-08-16T23:24:31.273Z,24.80
2018-08-16T23:26:58.872Z,24.80
2018-08-16T23:29:26.609Z,24.80
2018-08-16T23:31:55.804Z,24.70
2018-08-16T23:34:23.445Z,24.70
2018-08-16T23:36:51.004Z,24.60
2018-08-16T23:39:18.943Z,24.60
2018-08-16T23:41:46.649Z,24.60
2018-08-16T23:44:14.610Z,24.50
2018-08-16T23:46:42.412Z,24.50
2018-08-16T23:49:10.041Z,24.50
2018-08-16T23:51:38.040Z,24.50
2018-08-16T23:54:05.864Z,24.40
2018-08-16T23:56:33.465Z,24.40
2018-08-16T23:59:01.045Z,24.40
